Time;durP1;ratioP1;P1;durP2;ratioP2;P2;SDS_P1;SDS_P2;PMS_P1;PMS_P2;Temp;Humidity;BMP_temperature;BMP_pressure;BME280_temperature;BME280_humidity;BME280_pressure;Samples;Min_cycle;Max_cycle;Signal;HPM_P1;HPM_P2
2023/06/06 00:01:17;;;;;;;17.00;11.83;;;;;;;12.65;100.00;102159.22;5033063;28;20428;-41
2023/06/06 00:03:45;;;;;;;16.07;10.40;;;;;;;12.60;100.00;102161.56;5032934;28;20440;-41
2023/06/06 00:06:14;;;;;;;11.77;10.57;;;;;;;12.59;100.00;102167.13;5032547;28;20515;-41
2023/06/06 00:08:42;;;;;;;15.30;10.70;;;;;;;12.50;100.00;102165.47;5032141;28;20467;-41
2023/06/06 00:11:10;;;;;;;13.83;11.63;;;;;;;12.47;100.00;102158.66;5031925;28;20432;-42
2023/06/06 00:13:40;;;;;;;12.13;10.93;;;;;;;12.46;100.00;102158.81;5032414;28;20432;-41
2023/06/06 00:16:08;;;;;;;14.77;11.70;;;;;;;12.44;100.00;102150.13;5032683;28;20822;-42
2023/06/06 00:18:38;;;;;;;14.53;12.20;;;;;;;12.39;100.00;102141.81;5032072;28;20819;-41
2023/06/06 00:21:08;;;;;;;16.93;12.00;;;;;;;12.37;100.00;102141.97;5032535;28;20910;-43
2023/06/06 00:23:36;;;;;;;16.13;11.47;;;;;;;12.29;100.00;102144.69;5032185;28;20470;-41
2023/06/06 00:26:04;;;;;;;20.43;11.63;;;;;;;12.23;100.00;102148.06;5035420;28;20432;-42
2023/06/06 00:28:32;;;;;;;12.57;11.17;;;;;;;12.17;100.00;102148.75;5026651;28;20460;-40
2023/06/06 00:31:00;;;;;;;14.70;11.53;;;;;;;12.07;100.00;102142.75;5039288;28;20428;-41
2023/06/06 00:33:28;;;;;;;12.80;11.50;;;;;;;11.97;100.00;102139.47;5039266;28;20446;-41
2023/06/06 00:35:57;;;;;;;15.27;13.20;;;;;;;11.93;100.00;102144.31;5039553;28;20467;-40
2023/06/06 00:38:24;;;;;;;20.60;12.90;;;;;;;11.91;100.00;102149.00;5038720;28;20466;-41
2023/06/06 00:40:52;;;;;;;16.47;13.13;;;;;;;11.82;100.00;102142.00;5039723;28;20472;-41
2023/06/06 00:43:20;;;;;;;12.93;11.57;;;;;;;11.81;100.00;102142.16;5039616;28;20440;-42
2023/06/06 00:45:48;;;;;;;16.17;13.40;;;;;;;11.74;100.00;102143.88;5039653;28;20435;-42
2023/06/06 00:48:17;;;;;;;18.13;14.00;;;;;;;11.71;100.00;102146.88;5038519;28;20460;-41
2023/06/06 00:50:47;;;;;;;17.80;14.00;;;;;;;11.67;100.00;102143.66;5038993;28;20420;-40
2023/06/06 00:53:16;;;;;;;18.60;13.57;;;;;;;11.64;100.00;102144.84;5039163;28;20436;-40
2023/06/06 00:55:45;;;;;;;20.80;12.77;;;;;;;11.65;100.00;102141.16;5039108;28;20968;-43
2023/06/06 00:58:14;;;;;;;16.93;14.13;;;;;;;11.65;100.00;102145.66;5038870;28;20468;-40
2023/06/06 01:00:42;;;;;;;17.93;13.63;;;;;;;11.64;100.00;102149.34;5039557;28;21064;-43
2023/06/06 01:03:14;;;;;;;17.33;13.90;;;;;;;11.66;100.00;102142.00;5038584;28;20926;-43
2023/06/06 01:05:42;;;;;;;21.40;12.90;;;;;;;11.68;100.00;102147.19;5038291;28;20409;-45
2023/06/06 01:08:12;;;;;;;15.20;12.40;;;;;;;11.68;100.00;102148.84;5037982;28;20468;-43
2023/06/06 01:10:42;;;;;;;14.27;12.00;;;;;;;11.68;100.00;102154.16;5039123;28;20424;-43
2023/06/06 01:13:18;;;;;;;14.53;12.93;;;;;;;11.65;100.00;102159.84;5038652;28;20435;-40
2023/06/06 01:15:52;;;;;;;17.07;13.77;;;;;;;11.65;100.00;102153.66;5038444;28;20685;-40
2023/06/06 01:18:21;;;;;;;15.30;13.70;;;;;;;11.68;100.00;102160.53;5037586;28;20463;-45
2023/06/06 01:20:50;;;;;;;18.40;13.30;;;;;;;11.71;100.00;102166.38;5037594;28;20471;-43
2023/06/06 01:23:20;;;;;;;16.37;14.47;;;;;;;11.70;100.00;102151.38;5038158;28;20754;-41
2023/06/06 01:25:48;;;;;;;16.00;14.40;;;;;;;11.65;100.00;102159.84;5038534;28;20486;-41
2023/06/06 01:28:17;;;;;;;15.90;13.73;;;;;;;11.61;100.00;102153.19;5033216;28;20510;-40
2023/06/06 01:30:46;;;;;;;16.30;14.60;;;;;;;11.55;100.00;102153.88;5038088;28;20455;-43
2023/06/06 01:33:26;;;;;;;15.77;14.13;;;;;;;11.51;100.00;102160.53;5037717;28;20538;-39
2023/06/06 01:36:07;;;;;;;16.67;15.03;;;;;;;11.46;100.00;102154.03;5037901;28;20431;-40
2023/06/06 01:38:41;;;;;;;18.13;15.53;;;;;;;11.42;100.00;102158.88;5038160;28;20530;-44
2023/06/06 01:41:12;;;;;;;21.20;14.50;;;;;;;11.45;100.00;102155.88;5038163;28;20977;-44
2023/06/06 01:43:42;;;;;;;22.60;15.80;;;;;;;11.45;100.00;102155.03;5037582;28;20475;-40
2023/06/06 01:46:11;;;;;;;18.60;16.43;;;;;;;11.45;100.00;102155.88;5038568;28;20493;-41
2023/06/06 01:48:40;;;;;;;20.83;15.40;;;;;;;11.43;100.00;102165.06;5037647;28;20470;-43
2023/06/06 01:51:07;;;;;;;16.97;14.00;;;;;;;11.41;100.00;102159.06;5038028;28;20485;-41
2023/06/06 01:53:37;;;;;;;21.53;17.63;;;;;;;11.43;100.00;102157.88;5038326;28;20431;-40
2023/06/06 01:56:12;;;;;;;18.97;16.33;;;;;;;11.37;100.00;102155.88;5038196;28;20443;-42
2023/06/06 01:58:40;;;;;;;19.53;16.73;;;;;;;11.36;100.00;102156.88;5037924;28;20467;-43
2023/06/06 02:01:08;;;;;;;18.27;14.30;;;;;;;11.34;100.00;102153.56;5037943;28;20826;-39
2023/06/06 02:03:37;;;;;;;17.63;15.73;;;;;;;11.30;100.00;102160.22;5038472;28;20439;-40
2023/06/06 02:06:06;;;;;;;17.13;15.50;;;;;;;11.29;100.00;102161.22;5038559;28;20456;-42
2023/06/06 02:08:33;;;;;;;23.30;16.60;;;;;;;11.30;100.00;102160.22;5038313;28;20483;-43
2023/06/06 02:11:02;;;;;;;18.60;16.13;;;;;;;11.29;100.00;102160.41;5038814;28;20435;-40
2023/06/06 02:13:30;;;;;;;17.93;14.70;;;;;;;11.27;100.00;102162.38;5038211;28;20436;-40
2023/06/06 02:15:58;;;;;;;18.53;16.53;;;;;;;11.25;100.00;102167.91;5038145;28;20463;-42
2023/06/06 02:18:25;;;;;;;20.23;15.87;;;;;;;11.16;100.00;102171.56;5037315;28;20498;-40
2023/06/06 02:20:53;;;;;;;19.30;17.23;;;;;;;11.10;100.00;102162.38;5037468;28;20530;-40
2023/06/06 02:23:21;;;;;;;19.60;16.27;;;;;;;11.11;100.00;102174.72;5037702;28;20456;-40
2023/06/06 02:25:50;;;;;;;20.23;16.93;;;;;;;11.06;100.00;102169.06;5037913;28;20428;-41
2023/06/06 02:28:20;;;;;;;19.43;14.93;;;;;;;11.02;100.00;102166.88;5033486;28;20464;-41
2023/06/06 02:30:48;;;;;;;19.40;17.20;;;;;;;11.05;100.00;102166.56;5037926;28;20435;-40
2023/06/06 02:33:16;;;;;;;18.90;16.20;;;;;;;11.01;100.00;102183.91;5038735;28;20438;-45
2023/06/06 02:35:44;;;;;;;19.13;17.00;;;;;;;11.02;100.00;102177.56;5041487;28;20432;-44
2023/06/06 02:38:12;;;;;;;21.30;16.20;;;;;;;10.97;100.00;102177.19;5040382;28;20469;-40
2023/06/06 02:40:40;;;;;;;25.43;16.37;;;;;;;10.97;100.00;102182.53;5041838;28;20467;-40
2023/06/06 02:43:08;;;;;;;18.33;16.27;;;;;;;10.91;100.00;102178.69;5041045;28;20459;-43
2023/06/06 02:45:37;;;;;;;18.33;15.47;;;;;;;10.88;100.00;102172.84;5034003;28;20980;-40
2023/06/06 02:48:05;;;;;;;18.67;16.60;;;;;;;10.81;100.00;102177.19;5040054;28;21103;-42
2023/06/06 02:50:33;;;;;;;24.13;17.07;;;;;;;10.82;100.00;102177.00;5041442;28;20451;-42
2023/06/06 02:53:03;;;;;;;19.10;17.20;;;;;;;10.84;100.00;102179.53;5040741;28;20452;-45
2023/06/06 02:55:30;;;;;;;31.30;18.90;;;;;;;10.80;100.00;102178.19;5042165;28;20956;-45
2023/06/06 02:57:58;;;;;;;27.33;17.43;;;;;;;10.82;100.00;102178.84;5041135;28;21011;-40
2023/06/06 03:00:26;;;;;;;21.20;18.50;;;;;;;10.74;100.00;102181.50;5040648;28;20518;-40
2023/06/06 03:02:55;;;;;;;18.20;15.90;;;;;;;10.73;100.00;102179.81;5040840;28;20436;-40
2023/06/06 03:05:28;;;;;;;19.20;16.00;;;;;;;10.79;100.00;102184.50;5040999;28;20432;-44
2023/06/06 03:07:57;;;;;;;19.03;16.40;;;;;;;10.78;100.00;102178.31;5040938;28;20440;-40
2023/06/06 03:10:25;;;;;;;23.50;16.30;;;;;;;10.67;100.00;102175.13;5041623;28;20432;-40
2023/06/06 03:12:52;;;;;;;23.60;15.53;;;;;;;10.73;100.00;102180.66;5041898;28;20436;-41
2023/06/06 03:15:20;;;;;;;18.50;15.90;;;;;;;10.70;100.00;102183.66;5041983;28;20440;-40
2023/06/06 03:17:48;;;;;;;17.20;15.33;;;;;;;10.71;100.00;102184.47;5041443;28;20518;-41
2023/06/06 03:20:18;;;;;;;19.57;14.70;;;;;;;10.77;100.00;102191.84;5041829;28;20997;-40
2023/06/06 03:22:46;;;;;;;23.40;16.30;;;;;;;10.80;100.00;102191.50;5042066;28;20432;-39
2023/06/06 03:25:15;;;;;;;16.70;14.90;;;;;;;10.89;100.00;102194.06;5041936;28;20462;-41
2023/06/06 03:27:43;;;;;;;23.80;17.33;;;;;;;11.06;100.00;102194.91;5041737;28;20578;-40
2023/06/06 03:30:12;;;;;;;18.27;16.33;;;;;;;11.06;100.00;102186.91;5041211;28;20977;-40
2023/06/06 03:32:40;;;;;;;24.37;17.20;;;;;;;11.13;100.00;102193.25;5041820;28;20444;-43
2023/06/06 03:35:08;;;;;;;20.90;16.63;;;;;;;11.09;100.00;102184.75;5041333;28;20467;-46
2023/06/06 03:37:37;;;;;;;19.10;16.83;;;;;;;11.09;100.00;102183.91;5040737;28;20472;-42
2023/06/06 03:40:06;;;;;;;19.93;15.47;;;;;;;11.05;100.00;102190.59;5040737;28;20464;-43
2023/06/06 03:42:34;;;;;;;20.40;16.13;;;;;;;10.95;100.00;102187.22;5040495;28;20511;-42
2023/06/06 03:45:03;;;;;;;17.70;15.80;;;;;;;10.92;100.00;102191.06;5038866;28;20428;-41
2023/06/06 03:47:31;;;;;;;16.17;14.57;;;;;;;10.92;100.00;102188.38;5040468;28;20452;-43
2023/06/06 03:49:58;;;;;;;22.70;16.00;;;;;;;10.91;100.00;102180.53;5040708;28;20467;-41
2023/06/06 03:52:26;;;;;;;16.37;14.53;;;;;;;10.93;100.00;102183.88;5040701;28;20439;-44
2023/06/06 03:54:55;;;;;;;17.47;15.43;;;;;;;10.99;100.00;102193.91;5040370;28;20948;-42
2023/06/06 03:57:23;;;;;;;18.23;15.20;;;;;;;11.13;100.00;102187.06;5040138;28;20478;-42
2023/06/06 03:59:51;;;;;;;17.47;15.63;;;;;;;11.22;100.00;102191.44;5040085;28;20464;-43
2023/06/06 04:02:18;;;;;;;17.73;14.97;;;;;;;11.27;100.00;102186.41;5040399;28;20476;-44
2023/06/06 04:04:50;;;;;;;19.73;15.20;;;;;;;11.25;100.00;102191.94;5041040;28;20440;-40
2023/06/06 04:07:18;;;;;;;20.37;15.20;;;;;;;11.21;100.00;102195.94;5041377;28;20479;-40
2023/06/06 04:09:46;;;;;;;19.37;15.73;;;;;;;11.20;100.00;102194.25;5039895;28;20838;-41
2023/06/06 04:12:15;;;;;;;18.57;15.20;;;;;;;11.17;100.00;102189.25;5040278;28;20436;-40
2023/06/06 04:14:42;;;;;;;19.60;15.90;;;;;;;11.33;100.00;102194.59;5040030;28;20443;-41
2023/06/06 04:17:10;;;;;;;15.93;14.63;;;;;;;11.30;100.00;102188.75;5040360;28;20468;-40
2023/06/06 04:19:38;;;;;;;20.33;14.83;;;;;;;11.14;100.00;102197.56;5039463;28;20468;-41
2023/06/06 04:22:06;;;;;;;18.93;15.13;;;;;;;11.27;100.00;102192.59;5039672;28;20498;-40
2023/06/06 04:24:34;;;;;;;16.23;14.73;;;;;;;11.32;100.00;102186.78;5040006;28;20440;-41
2023/06/06 04:27:03;;;;;;;15.60;14.20;;;;;;;11.93;100.00;102188.91;5035844;28;20461;-45
2023/06/06 04:29:33;;;;;;;15.67;14.07;;;;;;;12.40;100.00;102181.75;5039714;28;20460;-40
2023/06/06 04:32:01;;;;;;;17.77;15.97;;;;;;;12.85;100.00;102178.34;5039447;28;20423;-43
2023/06/06 04:34:30;;;;;;;15.67;13.97;;;;;;;13.40;100.00;102175.47;5040211;28;20432;-41
2023/06/06 04:37:03;;;;;;;18.50;16.33;;;;;;;13.52;100.00;102175.88;5039437;28;20591;-41
2023/06/06 04:39:32;;;;;;;15.17;13.77;;;;;;;13.21;100.00;102179.47;5039780;28;20464;-41
2023/06/06 04:42:00;;;;;;;15.83;14.20;;;;;;;12.82;100.00;102175.16;5040165;28;20904;-40
2023/06/06 04:44:27;;;;;;;14.93;12.87;;;;;;;12.38;100.00;102175.75;5040069;28;20806;-43
2023/06/06 04:47:00;;;;;;;16.77;14.60;;;;;;;12.31;100.00;102180.09;5039342;28;20452;-41
2023/06/06 04:49:30;;;;;;;14.73;13.37;;;;;;;12.20;100.00;102175.97;5039359;28;20518;-44
2023/06/06 04:51:59;;;;;;;14.47;13.13;;;;;;;12.08;100.00;102181.84;5039955;28;20420;-43
2023/06/06 04:54:27;;;;;;;15.03;13.60;;;;;;;11.82;100.00;102184.78;5039867;28;20866;-41
2023/06/06 04:56:56;;;;;;;16.17;14.00;;;;;;;11.93;100.00;102181.72;5039042;28;20452;-41
2023/06/06 04:59:24;;;;;;;14.63;13.23;;;;;;;12.02;100.00;102182.53;5038801;28;21020;-41
2023/06/06 05:01:52;;;;;;;15.47;13.97;;;;;;;11.96;100.00;102180.56;5039177;28;20522;-43
2023/06/06 05:04:22;;;;;;;15.73;14.10;;;;;;;12.07;100.00;102186.38;5039149;28;20471;-42
2023/06/06 05:06:50;;;;;;;14.10;12.40;;;;;;;11.84;100.00;102189.94;5039344;28;20448;-41
2023/06/06 05:09:18;;;;;;;14.90;13.37;;;;;;;11.66;100.00;102182.91;5038738;28;20467;-42
2023/06/06 05:11:48;;;;;;;14.20;12.90;;;;;;;11.21;100.00;102187.91;5039003;28;20467;-43
2023/06/06 05:14:16;;;;;;;13.70;12.40;;;;;;;11.25;100.00;102183.09;5039808;28;20688;-41
2023/06/06 05:16:46;;;;;;;14.43;13.20;;;;;;;11.40;100.00;102192.09;5039606;28;20490;-42
2023/06/06 05:19:15;;;;;;;16.93;14.73;;;;;;;11.44;100.00;102183.56;5038500;28;20486;-41
2023/06/06 05:21:44;;;;;;;14.50;13.10;;;;;;;11.57;100.00;102193.78;5039336;28;20476;-45
2023/06/06 05:24:12;;;;;;;14.17;12.77;;;;;;;11.68;100.00;102186.25;5039249;28;20429;-42
2023/06/06 05:26:40;;;;;;;14.90;13.70;;;;;;;11.85;100.00;102189.78;5037247;28;20459;-42
2023/06/06 05:29:08;;;;;;;14.67;13.37;;;;;;;12.06;100.00;102195.41;5036266;28;20492;-40
2023/06/06 05:31:36;;;;;;;15.33;13.53;;;;;;;12.08;100.00;102188.03;5039056;28;20535;-40
2023/06/06 05:34:04;;;;;;;14.50;13.20;;;;;;;12.07;100.00;102188.19;5039449;28;20432;-40
2023/06/06 05:36:32;;;;;;;14.47;13.17;;;;;;;12.28;100.00;102192.97;5039339;28;20456;-40
2023/06/06 05:39:01;;;;;;;14.90;13.33;;;;;;;12.28;100.00;102187.63;5038739;28;20460;-41
2023/06/06 05:41:29;;;;;;;13.87;12.70;;;;;;;12.31;100.00;102187.28;5038883;28;20925;-43
2023/06/06 05:43:57;;;;;;;15.27;13.57;;;;;;;12.31;100.00;102189.97;5039680;28;20437;-43
2023/06/06 05:46:26;;;;;;;12.80;11.80;;;;;;;12.33;100.00;102194.16;5039061;28;20455;-40
2023/06/06 05:48:54;;;;;;;14.87;13.53;;;;;;;12.15;100.00;102199.75;5038561;28;20463;-42
2023/06/06 05:51:22;;;;;;;13.80;12.80;;;;;;;12.01;100.00;102199.56;5038825;28;20444;-42
2023/06/06 05:53:50;;;;;;;14.20;13.00;;;;;;;12.20;100.00;102188.50;5039460;28;20449;-45
2023/06/06 05:56:21;;;;;;;14.17;12.90;;;;;;;12.19;100.00;102197.53;5038155;28;20428;-43
2023/06/06 05:58:49;;;;;;;14.10;12.80;;;;;;;12.43;100.00;102191.25;5038558;28;20486;-45
2023/06/06 06:01:18;;;;;;;13.13;12.00;;;;;;;12.47;100.00;102193.44;5038358;28;20945;-42
2023/06/06 06:03:48;;;;;;;15.27;13.30;;;;;;;12.76;100.00;102190.09;5038103;28;21056;-42
2023/06/06 06:06:19;;;;;;;13.60;12.30;;;;;;;12.88;100.00;102190.53;5037665;28;20416;-43
2023/06/06 06:08:48;;;;;;;14.40;13.10;;;;;;;12.69;100.00;102189.16;5039727;28;20873;-43
2023/06/06 06:11:16;;;;;;;12.73;11.60;;;;;;;12.64;100.00;102186.16;5042004;28;20428;-42
2023/06/06 06:13:45;;;;;;;14.63;12.57;;;;;;;12.54;100.00;102193.56;5041600;28;20849;-42
2023/06/06 06:16:13;;;;;;;14.30;13.10;;;;;;;12.78;100.00;102193.47;5042351;28;20444;-43
2023/06/06 06:18:42;;;;;;;14.53;13.20;;;;;;;12.93;100.00;102199.69;5041577;28;20488;-42
2023/06/06 06:21:09;;;;;;;16.40;13.70;;;;;;;12.86;100.00;102197.91;5041699;28;20490;-41
2023/06/06 06:23:38;;;;;;;13.80;12.50;;;;;;;12.96;100.00;102194.00;5041485;28;20468;-42
2023/06/06 06:26:05;;;;;;;12.37;11.13;;;;;;;13.32;100.00;102196.16;5042079;28;20452;-43
2023/06/06 06:28:33;;;;;;;14.47;13.10;;;;;;;13.53;100.00;102196.31;5024129;28;20552;-45
2023/06/06 06:31:02;;;;;;;13.50;12.30;;;;;;;13.61;100.00;102194.38;5038827;28;20431;-41
2023/06/06 06:33:33;;;;;;;15.57;14.17;;;;;;;13.58;100.00;102192.06;5042339;28;20432;-44
2023/06/06 06:36:01;;;;;;;16.20;14.60;;;;;;;13.47;100.00;102189.81;5042335;28;20418;-44
2023/06/06 06:38:29;;;;;;;14.80;13.50;;;;;;;13.60;100.00;102191.88;5041960;28;20490;-40
2023/06/06 06:40:57;;;;;;;15.50;14.10;;;;;;;13.61;100.00;102191.72;5042204;28;20445;-40
2023/06/06 06:43:25;;;;;;;14.60;13.20;;;;;;;13.63;100.00;102186.16;5042681;28;20503;-41
2023/06/06 06:45:53;;;;;;;13.00;11.80;;;;;;;13.72;100.00;102193.94;5042336;28;20486;-41
2023/06/06 06:48:22;;;;;;;15.57;13.93;;;;;;;13.89;100.00;102193.78;5041682;28;20464;-40
2023/06/06 06:50:50;;;;;;;15.43;13.83;;;;;;;13.93;100.00;102200.44;5042079;28;20926;-41
2023/06/06 06:53:18;;;;;;;15.57;14.07;;;;;;;14.22;100.00;102203.97;5041080;28;20474;-40
2023/06/06 06:55:46;;;;;;;15.23;13.83;;;;;;;14.18;100.00;102197.34;5042164;28;20499;-41
2023/06/06 06:58:25;;;;;;;15.23;13.93;;;;;;;14.12;100.00;102199.91;5041142;28;20843;-41
2023/06/06 07:00:53;;;;;;;16.17;14.60;;;;;;;14.47;100.00;102203.72;5040983;28;20524;-40
2023/06/06 07:03:22;;;;;;;15.27;13.87;;;;;;;14.31;100.00;102199.34;5040454;28;20476;-43
2023/06/06 07:05:50;;;;;;;17.13;13.53;;;;;;;14.61;100.00;102206.38;5041258;28;20436;-41
2023/06/06 07:08:18;;;;;;;14.83;13.27;;;;;;;14.98;100.00;102199.19;5040784;28;20467;-42
2023/06/06 07:10:46;;;;;;;16.83;15.03;;;;;;;15.17;100.00;102207.44;5041547;28;20456;-41
2023/06/06 07:13:14;;;;;;;15.70;14.10;;;;;;;15.04;100.00;102203.78;5041538;28;20432;-43
2023/06/06 07:15:42;;;;;;;14.93;13.43;;;;;;;15.07;100.00;102209.63;5041404;28;20435;-43
2023/06/06 07:18:11;;;;;;;17.17;14.60;;;;;;;15.40;100.00;102208.09;5040430;28;20518;-40
2023/06/06 07:20:41;;;;;;;21.43;15.73;;;;;;;15.55;100.00;102200.00;5040431;28;20531;-41
2023/06/06 07:23:09;;;;;;;22.37;16.37;;;;;;;15.83;100.00;102208.09;5041075;28;20483;-41
2023/06/06 07:25:37;;;;;;;16.33;13.93;;;;;;;16.19;100.00;102200.66;5041294;28;20436;-41
2023/06/06 07:28:05;;;;;;;14.63;13.13;;;;;;;16.57;100.00;102198.41;5036594;28;20461;-41
2023/06/06 07:30:33;;;;;;;13.50;12.10;;;;;;;17.10;100.00;102194.00;5040895;28;20442;-41
2023/06/06 07:33:00;;;;;;;20.17;12.73;;;;;;;17.09;100.00;102187.78;5041020;28;20988;-42
2023/06/06 07:35:32;;;;;;;13.70;12.30;;;;;;;17.26;100.00;102198.19;5040482;28;20436;-41
2023/06/06 07:38:02;;;;;;;17.70;13.27;;;;;;;17.45;100.00;102191.97;5040611;28;20456;-42
2023/06/06 07:40:30;;;;;;;14.50;13.10;;;;;;;17.54;100.00;102188.03;5041013;28;21109;-41
2023/06/06 07:42:59;;;;;;;15.13;12.77;;;;;;;17.90;100.00;102188.47;5040267;28;20502;-42
2023/06/06 07:45:28;;;;;;;14.00;12.63;;;;;;;18.08;100.00;102185.94;5040841;28;20514;-41
2023/06/06 07:47:57;;;;;;;15.57;11.80;;;;;;;17.92;100.00;102183.69;5040123;28;20448;-45
2023/06/06 07:50:25;;;;;;;17.13;11.97;;;;;;;18.95;100.00;102185.44;5041305;28;20774;-42
2023/06/06 07:52:53;;;;;;;13.43;12.10;;;;;;;19.02;99.04;102182.69;5040306;28;20427;-42
2023/06/06 07:55:24;;;;;;;14.20;11.73;;;;;;;19.63;96.26;102182.88;5040827;28;20436;-42
2023/06/06 07:57:53;;;;;;;12.47;10.87;;;;;;;19.49;95.99;102184.88;5040641;28;20452;-41
2023/06/06 08:00:22;;;;;;;13.50;10.40;;;;;;;20.43;100.00;102184.56;5040645;28;20436;-42
2023/06/06 08:02:50;;;;;;;11.40;10.30;;;;;;;21.05;98.61;102180.63;5039833;28;20471;-41
2023/06/06 08:05:18;;;;;;;11.90;10.70;;;;;;;20.91;88.36;102181.88;5040029;28;20489;-40
2023/06/06 08:07:48;;;;;;;14.33;12.13;;;;;;;21.02;86.21;102180.28;5039724;28;20478;-43
2023/06/06 08:10:16;;;;;;;13.03;11.43;;;;;;;20.68;79.24;102176.34;5041129;28;20466;-41
2023/06/06 08:12:46;;;;;;;12.50;11.20;;;;;;;20.79;92.71;102179.09;5040639;28;20432;-42
2023/06/06 08:15:14;;;;;;;12.00;10.70;;;;;;;20.88;86.47;102174.19;5040027;28;20428;-43
2023/06/06 08:17:44;;;;;;;18.70;12.20;;;;;;;20.89;90.43;102173.13;5039471;28;20467;-41
2023/06/06 08:20:13;;;;;;;20.50;12.90;;;;;;;20.56;86.53;102175.47;5039541;28;21001;-40
2023/06/06 08:22:48;;;;;;;12.70;11.40;;;;;;;20.72;93.71;102170.25;5039470;28;20435;-41
2023/06/06 08:25:16;;;;;;;14.07;11.77;;;;;;;21.03;89.94;102168.38;5040248;28;20470;-40
2023/06/06 08:27:45;;;;;;;12.77;10.93;;;;;;;20.99;92.50;102170.72;5035650;28;20448;-41
2023/06/06 08:30:13;;;;;;;13.87;12.27;;;;;;;21.08;89.64;102165.78;5039884;28;20440;-41
2023/06/06 08:32:42;;;;;;;15.10;11.70;;;;;;;21.22;84.48;102164.53;5038671;28;20435;-44
2023/06/06 08:35:10;;;;;;;16.77;11.23;;;;;;;20.79;80.49;102162.84;5039112;28;20453;-43
2023/06/06 08:37:37;;;;;;;15.00;11.13;;;;;;;21.08;88.67;102165.78;5038864;28;20821;-44
2023/06/06 08:40:08;;;;;;;16.33;11.20;;;;;;;21.19;82.45;102165.84;5038404;28;20463;-44
2023/06/06 08:42:40;;;;;;;11.73;10.10;;;;;;;21.38;89.25;102153.84;5039514;28;20435;-42
2023/06/06 08:45:10;;;;;;;14.37;10.77;;;;;;;21.69;84.25;102154.56;5039015;28;20830;-42
2023/06/06 08:47:39;;;;;;;11.60;10.20;;;;;;;21.84;76.33;102158.47;5039514;28;20790;-41
2023/06/06 08:50:07;;;;;;;14.40;11.03;;;;;;;21.85;74.42;102151.16;5038424;28;20467;-45
2023/06/06 08:52:35;;;;;;;9.57;8.77;;;;;;;22.00;78.09;102154.25;5038854;28;20432;-41
2023/06/06 08:55:05;;;;;;;10.63;9.60;;;;;;;22.16;77.52;102155.41;5038989;28;20442;-44
2023/06/06 08:57:34;;;;;;;12.27;10.30;;;;;;;22.15;75.48;102154.56;5038444;28;20451;-46
2023/06/06 09:00:11;;;;;;;11.97;10.43;;;;;;;21.96;73.58;102151.16;5038878;28;20987;-44
2023/06/06 09:02:41;;;;;;;11.67;10.47;;;;;;;21.96;74.23;102153.88;5039181;28;20442;-41
2023/06/06 09:05:10;;;;;;;14.07;10.73;;;;;;;21.97;72.68;102149.28;5039999;28;20467;-44
2023/06/06 09:07:40;;;;;;;13.03;11.30;;;;;;;22.09;72.42;102155.53;5039596;28;20505;-42
2023/06/06 09:10:09;;;;;;;13.30;10.73;;;;;;;22.21;74.06;102153.63;5039157;28;20460;-42
2023/06/06 09:12:40;;;;;;;10.70;9.80;;;;;;;21.97;68.83;102144.69;5039131;28;20535;-41
2023/06/06 09:15:10;;;;;;;11.50;9.90;;;;;;;21.43;70.70;102156.69;5039933;28;20428;-41
2023/06/06 09:17:38;;;;;;;11.73;10.13;;;;;;;21.27;72.50;102148.38;5038654;28;20513;-41
2023/06/06 09:20:08;;;;;;;11.77;10.10;;;;;;;21.28;77.11;102147.34;5038187;28;20491;-41
2023/06/06 09:22:40;;;;;;;14.97;10.00;;;;;;;21.41;74.50;102153.34;5038533;28;20451;-42
2023/06/06 09:25:17;;;;;;;13.63;9.97;;;;;;;21.34;74.06;102151.84;5038364;28;20475;-41
2023/06/06 09:27:45;;;;;;;10.53;9.53;;;;;;;21.74;74.49;102141.97;5028530;28;20502;-42
2023/06/06 09:30:21;;;;;;;10.67;9.63;;;;;;;21.54;73.43;102149.59;5029026;28;20432;-43
2023/06/06 09:32:53;;;;;;;12.50;10.10;;;;;;;21.23;76.56;102139.06;5037715;28;20499;-42
2023/06/06 09:35:22;;;;;;;10.00;9.10;;;;;;;21.21;70.26;102136.59;5038895;28;20427;-43
2023/06/06 09:37:53;;;;;;;9.63;8.63;;;;;;;21.02;76.17;102143.13;5038675;28;20454;-41
2023/06/06 09:40:22;;;;;;;10.53;9.50;;;;;;;20.83;74.17;102134.22;5038841;28;20444;-43
2023/06/06 09:42:50;;;;;;;12.00;10.77;;;;;;;20.98;77.84;102137.34;5040493;28;20509;-46
2023/06/06 09:45:20;;;;;;;10.70;9.63;;;;;;;20.83;80.74;102136.94;5043204;28;20521;-41
2023/06/06 09:47:49;;;;;;;12.03;10.77;;;;;;;20.75;81.59;102136.44;5042635;28;20513;-41
2023/06/06 09:50:19;;;;;;;12.30;9.13;;;;;;;20.70;81.13;102145.25;5042934;28;20448;-41
2023/06/06 09:52:52;;;;;;;12.90;10.13;;;;;;;20.71;79.56;102140.66;5043254;28;20474;-42
2023/06/06 09:55:21;;;;;;;10.47;9.47;;;;;;;20.76;81.03;102143.50;5042903;28;20439;-42
2023/06/06 09:57:53;;;;;;;14.10;9.10;;;;;;;21.07;79.93;102135.13;5042281;28;20509;-42
2023/06/06 10:00:22;;;;;;;11.40;10.30;;;;;;;21.58;76.40;102139.09;5042864;28;20416;-43
2023/06/06 10:02:50;;;;;;;16.67;9.33;;;;;;;21.51;76.58;102137.34;5043446;28;20436;-42
2023/06/06 10:05:18;;;;;;;9.43;8.33;;;;;;;21.79;72.58;102138.53;5042445;28;20503;-41
2023/06/06 10:07:46;;;;;;;11.83;9.40;;;;;;;21.83;73.36;102137.78;5042501;28;20459;-41
2023/06/06 10:10:17;;;;;;;9.93;9.17;;;;;;;22.24;74.14;102136.84;5042266;28;20461;-44
2023/06/06 10:12:46;;;;;;;10.90;9.40;;;;;;;21.94;68.05;102123.44;5042487;28;20449;-42
2023/06/06 10:15:14;;;;;;;11.03;8.27;;;;;;;21.88;72.78;102123.56;5042683;28;20442;-40
2023/06/06 10:17:44;;;;;;;15.10;8.80;;;;;;;21.71;71.19;102126.13;5041535;28;20826;-41
2023/06/06 10:20:13;;;;;;;9.60;8.67;;;;;;;21.98;72.80;102127.31;5042107;28;20925;-43
2023/06/06 10:22:42;;;;;;;11.93;8.83;;;;;;;22.56;71.53;102116.28;5042029;28;20432;-41
2023/06/06 10:25:12;;;;;;;9.20;8.23;;;;;;;22.84;69.50;102117.38;5041958;28;20482;-41
2023/06/06 10:27:48;;;;;;;11.77;8.60;;;;;;;22.91;65.94;102115.28;5032106;28;20453;-44
2023/06/06 10:30:33;;;;;;;9.00;8.17;;;;;;;23.06;68.68;102112.84;5040942;28;20434;-46
2023/06/06 10:33:14;;;;;;;10.00;7.70;;;;;;;23.19;65.54;102114.41;5042006;28;20451;-41
2023/06/06 10:35:45;;;;;;;9.77;8.30;;;;;;;23.53;63.68;102110.66;5041278;28;20415;-42
2023/06/06 10:38:16;;;;;;;8.80;8.00;;;;;;;23.54;62.85;102110.41;5041847;28;20488;-41
2023/06/06 10:40:50;;;;;;;10.60;7.97;;;;;;;23.48;62.88;102102.41;5042133;28;20428;-44
2023/06/06 10:43:50;;;;;;;11.53;9.00;;;;;;;23.28;62.04;102112.94;5041718;28;20434;-44
2023/06/06 10:46:18;;;;;;;11.47;8.77;;;;;;;22.89;61.21;102109.28;5042023;28;20455;-44
2023/06/06 10:48:48;;;;;;;10.80;7.47;;;;;;;22.76;63.10;102107.69;5040748;28;20522;-42
2023/06/06 10:51:34;;;;;;;16.00;7.63;;;;;;;23.22;61.57;102106.59;5041518;28;20435;-44
2023/06/06 10:54:16;;;;;;;8.83;7.60;;;;;;;22.99;63.69;102106.75;5040816;28;20423;-41
2023/06/06 10:56:50;;;;;;;11.73;7.70;;;;;;;23.33;61.82;102099.41;5041619;28;20846;-42
2023/06/06 10:59:25;;;;;;;11.37;7.53;;;;;;;23.87;58.77;102092.31;5041013;28;20517;-46
2023/06/06 11:01:54;;;;;;;8.10;7.07;;;;;;;23.79;57.50;102093.59;5041520;28;20541;-41
2023/06/06 11:04:24;;;;;;;8.03;6.87;;;;;;;23.05;57.47;102092.16;5041175;28;20439;-41
2023/06/06 11:06:54;;;;;;;11.33;8.40;;;;;;;22.99;61.56;102093.97;5041769;28;20554;-44
2023/06/06 11:09:23;;;;;;;12.47;8.13;;;;;;;22.75;60.64;102095.19;5041214;28;20466;-41
2023/06/06 11:12:11;;;;;;;9.20;8.23;;;;;;;23.40;61.61;102086.50;5041178;28;20436;-42
2023/06/06 11:14:58;;;;;;;8.67;7.63;;;;;;;23.87;62.99;102078.72;5041155;28;20538;-42